Time;durP1;ratioP1;P1;durP2;ratioP2;P2;SDS_P1;SDS_P2;PMS_P1;PMS_P2;Temp;Humidity;BMP_temperature;BMP_pressure;BME280_temperature;BME280_humidity;BME280_pressure;Samples;Min_cycle;Max_cycle;Signal;HPM_P1;HPM_P2
2023/03/24 00:01:18;;;;;;;0.00;0.00;;;14.90;96.40;;;;;;5006354;28;20867;-82
2023/03/24 00:03:47;;;;;;;0.00;0.00;;;14.80;97.00;;;;;;5002771;28;20023;-82
2023/03/24 00:06:17;;;;;;;0.55;0.40;;;14.80;97.10;;;;;;5023070;28;20022;-80
2023/03/24 00:08:47;;;;;;;0.00;0.00;;;14.80;97.30;;;;;;5012436;28;20018;-82
2023/03/24 00:11:13;;;;;;;0.00;0.00;;;14.70;97.40;;;;;;5020777;28;20064;-81
2023/03/24 00:13:45;;;;;;;0.10;0.05;;;14.70;98.00;;;;;;5005576;28;20022;-81
2023/03/24 00:16:15;;;;;;;0.00;0.00;;;14.60;98.60;;;;;;5020679;28;20501;-81
2023/03/24 00:18:51;;;;;;;0.08;0.08;;;14.60;99.20;;;;;;5016978;28;20387;-82
2023/03/24 00:21:28;;;;;;;1.02;0.25;;;14.50;99.70;;;;;;5025780;28;20029;-81
2023/03/24 00:24:00;;;;;;;0.00;0.00;;;14.50;99.90;;;;;;5002871;28;20026;-81
2023/03/24 00:26:28;;;;;;;0.00;0.00;;;14.50;99.90;;;;;;5011032;28;20108;-81
2023/03/24 00:28:55;;;;;;;0.00;0.00;;;14.40;99.90;;;;;;5029779;28;20044;-81
2023/03/24 00:31:29;;;;;;;0.00;0.00;;;14.40;99.90;;;;;;5011738;28;20026;-81
2023/03/24 00:33:56;;;;;;;0.00;0.00;;;14.30;99.90;;;;;;5011309;28;20029;-81
2023/03/24 00:36:29;;;;;;;0.47;0.47;;;14.20;99.90;;;;;;5025886;28;20022;-81
2023/03/24 00:39:06;;;;;;;0.77;0.77;;;14.10;99.90;;;;;;5006577;28;20060;-81
2023/03/24 00:41:33;;;;;;;;;;;14.00;99.90;;;;;;5010834;28;20025;-81
2023/03/24 00:44:02;;;;;;;0.00;0.00;;;13.90;99.90;;;;;;4997993;28;19905;-81
2023/03/24 00:46:28;;;;;;;0.00;0.00;;;13.90;99.90;;;;;;5021450;28;21312;-81
2023/03/24 00:49:06;;;;;;;0.00;0.00;;;13.90;99.90;;;;;;5008641;28;20030;-82
2023/03/24 00:51:36;;;;;;;0.00;0.00;;;14.00;99.90;;;;;;5033335;28;20037;-81
2023/03/24 00:54:08;;;;;;;0.00;0.00;;;14.00;99.90;;;;;;5006358;28;20486;-82
2023/03/24 00:56:38;;;;;;;0.00;0.00;;;14.00;99.90;;;;;;5024249;28;20029;-82
2023/03/24 00:59:09;;;;;;;0.00;0.00;;;14.00;99.90;;;;;;5008951;28;20116;-83
2023/03/24 01:01:36;;;;;;;0.38;0.20;;;13.90;99.90;;;;;;5025911;28;20017;-83
2023/03/24 01:04:04;;;;;;;0.00;0.00;;;14.00;99.90;;;;;;5006059;28;20030;-81
2023/03/24 01:06:30;;;;;;;0.00;0.00;;;13.90;99.90;;;;;;5017755;28;20032;-81
2023/03/24 01:08:56;;;;;;;0.00;0.00;;;13.90;99.90;;;;;;5019748;28;20030;-81
2023/03/24 01:11:28;;;;;;;1.00;0.20;;;13.80;99.90;;;;;;5014037;28;20029;-82
2023/03/24 01:13:54;;;;;;;0.00;0.00;;;13.80;99.90;;;;;;5004734;28;20037;-81
2023/03/24 01:16:24;;;;;;;0.00;0.00;;;13.80;99.90;;;;;;5008323;28;20083;-83
2023/03/24 01:18:51;;;;;;;0.25;0.10;;;13.80;99.90;;;;;;5017319;28;20041;-82
2023/03/24 01:21:17;;;;;;;0.00;0.00;;;13.90;99.90;;;;;;5017166;28;20037;-81
2023/03/24 01:23:44;;;;;;;0.00;0.00;;;13.90;99.90;;;;;;5024568;28;20021;-81
2023/03/24 01:26:10;;;;;;;0.10;0.10;;;13.80;99.90;;;;;;5011683;28;20108;-80
2023/03/24 01:28:39;;;;;;;0.00;0.00;;;13.90;99.90;;;;;;5028485;28;20631;-81
2023/03/24 01:31:09;;;;;;;0.00;0.00;;;13.90;99.90;;;;;;4999621;28;20041;-81
2023/03/24 01:33:42;;;;;;;0.00;0.00;;;13.90;99.90;;;;;;5008251;28;20435;-81
2023/03/24 01:36:10;;;;;;;0.00;0.00;;;13.90;99.90;;;;;;5002950;28;20105;-81
2023/03/24 01:38:39;;;;;;;0.10;0.08;;;13.90;99.90;;;;;;4998689;28;20037;-81
2023/03/24 01:41:17;;;;;;;0.00;0.00;;;14.00;99.90;;;;;;4998021;28;20025;-83
2023/03/24 01:43:43;;;;;;;0.32;0.32;;;14.00;99.90;;;;;;5006734;28;20085;-81
2023/03/24 01:46:16;;;;;;;0.00;0.00;;;14.00;99.90;;;;;;5005925;28;20030;-81
2023/03/24 01:49:16;;;;;;;0.00;0.00;;;14.10;99.90;;;;;;4997565;28;20466;-82
2023/03/24 01:52:01;;;;;;;0.20;0.20;;;14.10;99.90;;;;;;5004613;28;20041;-81
2023/03/24 01:54:41;;;;;;;0.00;0.00;;;14.00;99.90;;;;;;5015917;28;20029;-81
2023/03/24 01:57:36;;;;;;;0.03;0.03;;;14.00;99.90;;;;;;5006834;28;20083;-83
2023/03/24 02:00:12;;;;;;;0.00;0.00;;;14.00;99.90;;;;;;5017168;28;20116;-81
2023/03/24 02:02:41;;;;;;;0.00;0.00;;;14.00;99.90;;;;;;5002952;28;20025;-81
2023/03/24 02:05:16;;;;;;;0.08;0.08;;;13.90;99.90;;;;;;5007122;28;20028;-81
2023/03/24 02:07:54;;;;;;;0.00;0.00;;;13.90;99.90;;;;;;5002404;28;20475;-81
2023/03/24 02:10:22;;;;;;;0.00;0.00;;;13.90;99.90;;;;;;5001374;28;20105;-83
2023/03/24 02:12:57;;;;;;;0.00;0.00;;;13.90;99.90;;;;;;5010538;28;20678;-82
2023/03/24 02:15:28;;;;;;;0.22;0.22;;;13.80;99.90;;;;;;5020361;28;20022;-81
2023/03/24 02:18:45;;;;;;;0.43;0.15;;;13.90;99.90;;;;;;5015952;28;20379;-81
2023/03/24 02:21:48;;;;;;;0.00;0.00;;;13.90;99.90;;;;;;4998051;28;20071;-81
2023/03/24 02:25:03;;;;;;;0.03;0.03;;;13.90;99.90;;;;;;5002091;28;20018;-83
2023/03/24 02:27:40;;;;;;;0.00;0.00;;;13.90;99.90;;;;;;4993760;28;20042;-81
2023/03/24 02:30:46;;;;;;;0.00;0.00;;;13.90;99.90;;;;;;5012508;28;20018;-82
2023/03/24 02:34:00;;;;;;;0.00;0.00;;;13.90;99.90;;;;;;5001013;28;20022;-80
2023/03/24 02:37:00;;;;;;;0.00;0.00;;;13.90;99.90;;;;;;5003590;28;20021;-81
2023/03/24 02:40:03;;;;;;;0.00;0.00;;;13.90;99.90;;;;;;5005313;28;20030;-81
2023/03/24 02:43:12;;;;;;;0.10;0.10;;;13.80;99.90;;;;;;5005942;28;20021;-81
2023/03/24 02:46:19;;;;;;;0.00;0.00;;;13.80;99.90;;;;;;4986956;28;20034;-81
2023/03/24 02:48:56;;;;;;;0.32;0.00;;;13.70;99.90;;;;;;5002931;28;20028;-82
2023/03/24 02:52:18;;;;;;;0.00;0.00;;;13.70;99.90;;;;;;5009398;28;20018;-81
2023/03/24 02:55:11;;;;;;;0.05;0.05;;;13.60;99.90;;;;;;5005502;28;20060;-81
2023/03/24 02:57:44;;;;;;;0.00;0.00;;;13.70;99.90;;;;;;4995678;28;20093;-81
2023/03/24 03:00:17;;;;;;;0.00;0.00;;;13.70;99.90;;;;;;5024561;28;20022;-81
2023/03/24 03:02:50;;;;;;;0.00;0.00;;;13.60;99.90;;;;;;5001538;28;20030;-81
2023/03/24 03:05:40;;;;;;;0.13;0.13;;;13.60;99.90;;;;;;5005301;28;20026;-81
2023/03/24 03:08:11;;;;;;;0.00;0.00;;;13.60;99.90;;;;;;5010564;28;20478;-82
2023/03/24 03:10:51;;;;;;;0.00;0.00;;;13.70;99.90;;;;;;5003009;28;20022;-81
2023/03/24 03:13:29;;;;;;;0.00;0.00;;;13.70;99.90;;;;;;5006194;28;20021;-82
2023/03/24 03:16:09;;;;;;;0.00;0.00;;;13.70;99.90;;;;;;5008983;28;20032;-81
2023/03/24 03:18:49;;;;;;;0.05;0.05;;;13.70;99.90;;;;;;5009049;28;20029;-81
2023/03/24 03:21:20;;;;;;;0.00;0.00;;;13.70;99.90;;;;;;5005582;28;20021;-82
2023/03/24 03:24:07;;;;;;;0.00;0.00;;;13.70;99.90;;;;;;5010502;28;20018;-81
2023/03/24 03:26:44;;;;;;;0.00;0.00;;;13.70;99.90;;;;;;5010563;28;20024;-81
2023/03/24 03:29:21;;;;;;;0.00;0.00;;;13.70;99.90;;;;;;5005164;28;20104;-81
2023/03/24 03:31:58;;;;;;;0.00;0.00;;;13.70;99.90;;;;;;5003372;28;20026;-81
2023/03/24 03:34:27;;;;;;;0.00;0.00;;;13.80;99.90;;;;;;5007734;28;20018;-81
2023/03/24 03:37:08;;;;;;;0.00;0.00;;;13.90;99.90;;;;;;5005838;28;20030;-81
2023/03/24 03:39:44;;;;;;;0.45;0.45;;;13.70;99.90;;;;;;5005648;28;20068;-81
2023/03/24 03:42:11;;;;;;;0.00;0.00;;;13.70;99.90;;;;;;5006657;28;20033;-81
2023/03/24 03:44:37;;;;;;;0.00;0.00;;;13.70;99.90;;;;;;5007351;28;20018;-81
2023/03/24 03:47:03;;;;;;;0.00;0.00;;;13.70;99.90;;;;;;5021022;28;20076;-82
2023/03/24 03:49:29;;;;;;;0.00;0.00;;;13.70;99.90;;;;;;5011891;28;20027;-81
2023/03/24 03:51:56;;;;;;;;;;;13.70;99.90;;;;;;5026239;28;20084;-82
2023/03/24 03:54:25;;;;;;;0.00;0.00;;;13.60;99.90;;;;;;5000252;28;19905;-81
2023/03/24 03:56:51;;;;;;;0.00;0.00;;;13.60;99.90;;;;;;5012343;28;20026;-81
2023/03/24 03:59:28;;;;;;;0.00;0.00;;;13.60;99.90;;;;;;5003472;28;20029;-81
2023/03/24 04:01:56;;;;;;;0.00;0.00;;;13.60;99.90;;;;;;5002555;28;20038;-81
2023/03/24 04:04:38;;;;;;;0.00;0.00;;;13.60;99.90;;;;;;5017090;28;20025;-81
2023/03/24 04:07:19;;;;;;;0.03;0.03;;;13.60;99.90;;;;;;5006595;28;20033;-81
2023/03/24 04:10:38;;;;;;;0.00;0.00;;;13.60;99.90;;;;;;5004645;28;20021;-81
2023/03/24 04:13:18;;;;;;;0.00;0.00;;;13.60;99.90;;;;;;5007231;28;20039;-81
2023/03/24 04:16:00;;;;;;;0.00;0.00;;;13.60;99.90;;;;;;5018129;28;20026;-81
2023/03/24 04:18:57;;;;;;;0.00;0.00;;;13.50;99.90;;;;;;5008508;28;20064;-81
2023/03/24 04:21:47;;;;;;;0.00;0.00;;;13.60;99.90;;;;;;5027153;28;20038;-81
2023/03/24 04:28:00;;;;;;;0.00;0.00;;;13.50;99.90;;;;;;5014833;28;20036;-81
2023/03/24 04:30:57;;;;;;;0.10;0.10;;;13.60;99.90;;;;;;5013273;28;21915;-81
2023/03/24 04:33:40;;;;;;;0.00;0.00;;;13.60;99.90;;;;;;5028558;28;20030;-81
2023/03/24 04:36:18;;;;;;;0.20;0.20;;;13.50;99.90;;;;;;5008675;28;20406;-81
2023/03/24 04:38:56;;;;;;;0.10;0.10;;;13.40;99.90;;;;;;5004127;28;20558;-80
2023/03/24 04:41:25;;;;;;;0.28;0.10;;;13.40;99.90;;;;;;5017038;28;20009;-81
2023/03/24 04:44:02;;;;;;;0.10;0.10;;;13.30;99.90;;;;;;5001853;28;20026;-81
2023/03/24 04:46:36;;;;;;;0.17;0.17;;;13.20;99.90;;;;;;5014484;28;20109;-81
2023/03/24 04:49:03;;;;;;;0.00;0.00;;;13.10;99.90;;;;;;5007727;28;20032;-80
2023/03/24 04:51:33;;;;;;;0.00;0.00;;;13.10;99.90;;;;;;5022930;28;20026;-80
2023/03/24 04:54:00;;;;;;;0.13;0.13;;;13.10;99.90;;;;;;5009885;28;20040;-80
2023/03/24 04:56:38;;;;;;;0.00;0.00;;;13.20;99.90;;;;;;5006006;28;20040;-81
2023/03/24 04:59:11;;;;;;;0.00;0.00;;;13.20;99.90;;;;;;5012252;28;20156;-81
2023/03/24 05:01:48;;;;;;;0.10;0.10;;;13.20;99.90;;;;;;5005898;28;20022;-80
2023/03/24 05:04:19;;;;;;;;;;;13.30;99.90;;;;;;5005084;28;20014;-81
2023/03/24 05:06:48;;;;;;;0.00;0.00;;;13.30;99.90;;;;;;5007538;28;19913;-73
2023/03/24 05:09:16;;;;;;;0.25;0.25;;;13.30;99.90;;;;;;5001893;28;20027;-73
2023/03/24 05:11:48;;;;;;;0.15;0.15;;;13.30;99.90;;;;;;5016005;28;20022;-76
2023/03/24 05:14:14;;;;;;;1.75;0.32;;;13.30;99.90;;;;;;5021258;28;20072;-77
2023/03/24 05:16:42;;;;;;;;;;;13.30;99.90;;;;;;5002248;28;20089;-77
2023/03/24 05:19:18;;;;;;;0.17;0.17;;;13.40;99.90;;;;;;5007515;28;20000;-77
2023/03/24 05:21:49;;;;;;;0.00;0.00;;;13.40;99.90;;;;;;5022370;28;20520;-77
2023/03/24 05:24:17;;;;;;;0.00;0.00;;;13.40;99.90;;;;;;5005090;28;20624;-78
2023/03/24 05:26:45;;;;;;;0.32;0.10;;;13.40;99.90;;;;;;5002719;28;20018;-77
2023/03/24 05:29:11;;;;;;;0.22;0.22;;;13.40;99.90;;;;;;4994944;28;20022;-77
2023/03/24 05:31:38;;;;;;;0.00;0.00;;;13.30;99.90;;;;;;5002630;28;20015;-77
2023/03/24 05:34:05;;;;;;;;;;;13.20;99.90;;;;;;5010832;28;20053;-76
2023/03/24 05:36:31;;;;;;;0.00;0.00;;;13.20;99.90;;;;;;5025852;28;19911;-77
2023/03/24 05:39:00;;;;;;;0.00;0.00;;;13.10;99.90;;;;;;4999356;28;20152;-77
2023/03/24 05:41:26;;;;;;;0.90;0.20;;;13.20;99.90;;;;;;5028985;28;20018;-75
2023/03/24 05:43:55;;;;;;;0.00;0.00;;;13.20;99.90;;;;;;4997018;28;20028;-75
2023/03/24 05:46:23;;;;;;;0.00;0.00;;;13.20;99.90;;;;;;5005288;28;20014;-78
2023/03/24 05:48:50;;;;;;;0.52;0.20;;;13.20;99.90;;;;;;4997356;28;20452;-78
2023/03/24 05:51:15;;;;;;;;;;;13.20;99.90;;;;;;5016867;28;20022;-77
2023/03/24 05:53:43;;;;;;;0.00;0.00;;;13.20;99.90;;;;;;5006110;28;19905;-78
2023/03/24 05:56:11;;;;;;;0.73;0.30;;;13.10;99.90;;;;;;5006722;28;20653;-77
2023/03/24 05:58:38;;;;;;;0.10;0.10;;;13.20;99.90;;;;;;5009757;28;20032;-75
2023/03/24 06:01:10;;;;;;;0.00;0.00;;;13.20;99.90;;;;;;5023040;28;20049;-76
2023/03/24 06:03:44;;;;;;;0.10;0.00;;;13.20;99.90;;;;;;5001070;28;20164;-80
2023/03/24 06:06:15;;;;;;;0.00;0.00;;;13.30;99.90;;;;;;5009861;28;20029;-75
2023/03/24 06:08:43;;;;;;;0.30;0.20;;;13.30;99.90;;;;;;5024721;28;20083;-76
2023/03/24 06:11:12;;;;;;;0.00;0.00;;;13.40;99.90;;;;;;5007298;28;20483;-76
2023/03/24 06:13:37;;;;;;;0.10;0.10;;;13.50;99.90;;;;;;5021582;28;20025;-76
2023/03/24 06:16:09;;;;;;;0.00;0.00;;;13.70;99.90;;;;;;5010220;28;20567;-76
2023/03/24 06:18:39;;;;;;;0.00;0.00;;;13.70;99.90;;;;;;5013440;28;20025;-76
2023/03/24 06:21:10;;;;;;;0.00;0.00;;;13.80;99.90;;;;;;5002523;28;20026;-76
2023/03/24 06:23:35;;;;;;;0.00;0.00;;;14.00;99.90;;;;;;5007343;28;20095;-76
2023/03/24 06:26:08;;;;;;;0.37;0.13;;;14.00;99.90;;;;;;4999284;28;20052;-77
2023/03/24 06:28:40;;;;;;;0.00;0.00;;;14.20;99.90;;;;;;5009706;28;20355;-76
2023/03/24 06:31:20;;;;;;;0.00;0.00;;;14.30;99.90;;;;;;5007428;28;20018;-76
2023/03/24 06:33:51;;;;;;;0.00;0.00;;;14.50;99.90;;;;;;5004835;28;20017;-77
2023/03/24 06:36:18;;;;;;;0.22;0.08;;;14.50;99.90;;;;;;5008434;28;20037;-76
2023/03/24 06:38:44;;;;;;;0.20;0.20;;;14.50;99.90;;;;;;5006255;28;20026;-75
2023/03/24 06:41:13;;;;;;;0.08;0.08;;;14.50;99.90;;;;;;5022167;28;20030;-76
2023/03/24 06:43:40;;;;;;;0.32;0.10;;;14.70;99.90;;;;;;5005344;28;20030;-76
2023/03/24 06:46:05;;;;;;;0.75;0.10;;;14.90;99.90;;;;;;5030633;28;20113;-75
2023/03/24 06:48:32;;;;;;;4.50;0.30;;;15.00;99.90;;;;;;5005996;28;20194;-75
2023/03/24 06:51:00;;;;;;;;;;;15.10;99.90;;;;;;5000795;28;20034;-75
2023/03/24 06:53:28;;;;;;;0.00;0.00;;;15.20;99.90;;;;;;5000619;28;19909;-77
2023/03/24 06:55:55;;;;;;;0.00;0.00;;;15.40;99.90;;;;;;5005934;28;20034;-78
2023/03/24 06:58:23;;;;;;;0.70;0.28;;;15.50;99.90;;;;;;5004793;28;20030;-78
2023/03/24 07:00:50;;;;;;;0.35;0.15;;;15.40;99.90;;;;;;5009927;28;20028;-78
2023/03/24 07:03:17;;;;;;;0.00;0.00;;;15.20;99.90;;;;;;5010182;28;20096;-78
2023/03/24 07:05:47;;;;;;;0.00;0.00;;;15.30;99.90;;;;;;4999830;28;20108;-78
2023/03/24 07:08:14;;;;;;;0.20;0.20;;;15.30;99.90;;;;;;5007191;28;20142;-79
2023/03/24 07:10:40;;;;;;;0.10;0.10;;;15.40;99.90;;;;;;5019940;28;20032;-78
2023/03/24 07:13:07;;;;;;;0.00;0.00;;;15.70;99.90;;;;;;5016633;28;20375;-78
2023/03/24 07:15:33;;;;;;;0.00;0.00;;;15.90;99.90;;;;;;5006501;28;20022;-78
2023/03/24 07:17:59;;;;;;;0.08;0.08;;;16.10;99.90;;;;;;5027007;28;20033;-78
2023/03/24 07:20:25;;;;;;;;;;;16.20;99.80;;;;;;5004071;28;20507;-77
2023/03/24 07:22:57;;;;;;;0.00;0.00;;;16.00;99.90;;;;;;5008056;28;19905;-79
2023/03/24 07:25:35;;;;;;;0.10;0.10;;;15.90;99.90;;;;;;5010229;28;20022;-78
2023/03/24 07:28:02;;;;;;;0.08;0.08;;;15.90;99.90;;;;;;5016361;28;20105;-78
2023/03/24 07:30:34;;;;;;;0.00;0.00;;;16.00;99.70;;;;;;5009007;28;20352;-78
2023/03/24 07:33:04;;;;;;;0.00;0.00;;;16.00;99.90;;;;;;5002642;28;20073;-77
2023/03/24 07:35:32;;;;;;;0.15;0.15;;;16.10;99.90;;;;;;5003272;28;20034;-78
2023/03/24 07:38:00;;;;;;;0.25;0.10;;;16.20;99.30;;;;;;5000876;28;20026;-78
2023/03/24 07:40:35;;;;;;;0.05;0.05;;;16.40;99.20;;;;;;5026738;28;20586;-77
2023/03/24 07:43:04;;;;;;;0.20;0.20;;;16.30;98.80;;;;;;5002256;28;20076;-78
2023/03/24 07:45:32;;;;;;;0.20;0.13;;;16.40;99.00;;;;;;5020561;28;20022;-78
2023/03/24 07:48:02;;;;;;;1.17;0.60;;;16.30;98.60;;;;;;5002983;28;20034;-79
2023/03/24 07:50:32;;;;;;;0.10;0.10;;;16.30;98.50;;;;;;5019314;28;20034;-78
2023/03/24 07:53:00;;;;;;;0.70;0.20;;;16.10;98.90;;;;;;5007111;28;20503;-78
2023/03/24 07:55:26;;;;;;;0.00;0.00;;;16.20;98.90;;;;;;5005591;28;20021;-78
2023/03/24 07:57:54;;;;;;;0.88;0.17;;;16.30;98.80;;;;;;5021942;28;20104;-79
2023/03/24 08:00:23;;;;;;;0.00;0.00;;;16.10;98.90;;;;;;5029335;28;20029;-78
2023/03/24 08:02:52;;;;;;;0.80;0.45;;;16.10;98.90;;;;;;5015055;28;20747;-78
2023/03/24 08:05:37;;;;;;;0.60;0.60;;;16.20;98.80;;;;;;4999556;28;20026;-78
2023/03/24 08:08:09;;;;;;;0.20;0.20;;;16.20;98.50;;;;;;5008807;28;20024;-78
2023/03/24 08:10:37;;;;;;;0.00;0.00;;;16.30;98.50;;;;;;5009844;28;20022;-79
2023/03/24 08:13:05;;;;;;;0.00;0.00;;;16.20;98.90;;;;;;5008778;28;20479;-79
2023/03/24 08:15:33;;;;;;;0.00;0.00;;;16.30;98.80;;;;;;5021551;28;20084;-78
2023/03/24 08:18:00;;;;;;;0.00;0.00;;;16.20;98.70;;;;;;5007859;28;20072;-78
2023/03/24 08:20:28;;;;;;;0.00;0.00;;;16.40;98.60;;;;;;5011858;28;20033;-78
2023/03/24 08:22:59;;;;;;;0.00;0.00;;;16.60;98.40;;;;;;5023805;28;20137;-78
2023/03/24 08:25:39;;;;;;;0.28;0.28;;;16.70;97.80;;;;;;5009090;28;20160;-78
2023/03/24 08:28:07;;;;;;;0.13;0.13;;;16.90;97.80;;;;;;5019649;28;20471;-78
2023/03/24 08:30:33;;;;;;;0.00;0.00;;;17.00;97.10;;;;;;5005721;28;20030;-79
2023/03/24 08:33:10;;;;;;;0.08;0.08;;;17.30;96.90;;;;;;5031034;28;20081;-79
2023/03/24 08:35:39;;;;;;;0.00;0.00;;;17.60;96.60;;;;;;5018001;28;20036;-79
2023/03/24 08:38:07;;;;;;;0.00;0.00;;;17.80;95.90;;;;;;5014152;28;20068;-79
2023/03/24 08:40:35;;;;;;;0.20;0.10;;;17.80;95.70;;;;;;5027818;28;20048;-79
2023/03/24 08:43:07;;;;;;;0.00;0.00;;;18.20;95.40;;;;;;5015119;28;20025;-78
2023/03/24 08:45:36;;;;;;;0.03;0.03;;;18.60;94.60;;;;;;5008322;28;20056;-78
2023/03/24 08:48:08;;;;;;;0.00;0.00;;;19.50;93.40;;;;;;5010068;28;20026;-78
2023/03/24 08:50:41;;;;;;;0.57;0.32;;;20.10;92.30;;;;;;5011061;28;20029;-76
2023/03/24 08:53:08;;;;;;;0.60;0.43;;;20.40;91.20;;;;;;5002663;28;20485;-75
2023/03/24 08:55:40;;;;;;;0.00;0.00;;;20.80;90.30;;;;;;5000256;28;20032;-76
2023/03/24 08:58:07;;;;;;;0.00;0.00;;;20.80;89.10;;;;;;5032352;28;20021;-78
2023/03/24 09:00:33;;;;;;;0.70;0.15;;;20.70;88.30;;;;;;5007093;28;20028;-78
2023/03/24 09:02:59;;;;;;;0.25;0.25;;;21.00;88.00;;;;;;5007785;28;20105;-72
2023/03/24 09:05:25;;;;;;;0.20;0.20;;;21.30;86.70;;;;;;5005051;28;20018;-71
2023/03/24 09:07:52;;;;;;;0.00;0.00;;;22.60;83.80;;;;;;5020080;28;20032;-70
2023/03/24 09:10:22;;;;;;;0.00;0.00;;;23.50;79.40;;;;;;5012695;28;20387;-76
2023/03/24 09:13:03;;;;;;;0.05;0.05;;;23.10;78.10;;;;;;5016967;28;20038;-75
2023/03/24 09:15:31;;;;;;;0.00;0.00;;;23.40;76.90;;;;;;5009274;28;20536;-78
2023/03/24 09:17:58;;;;;;;0.10;0.10;;;23.00;76.90;;;;;;5025173;28;20159;-77
2023/03/24 09:20:24;;;;;;;0.00;0.00;;;22.80;77.00;;;;;;5018965;28;20014;-77
2023/03/24 09:22:54;;;;;;;0.35;0.35;;;23.00;76.70;;;;;;5017836;28;20072;-75
2023/03/24 09:25:22;;;;;;;0.70;0.35;;;22.90;75.60;;;;;;5003217;28;20475;-80
2023/03/24 09:27:52;;;;;;;0.38;0.32;;;22.60;75.40;;;;;;5002557;28;20541;-75
2023/03/24 09:30:22;;;;;;;0.30;0.30;;;22.90;75.60;;;;;;5005569;28;20030;-77
2023/03/24 09:32:57;;;;;;;0.03;0.03;;;21.90;75.70;;;;;;5007390;28;20372;-76
2023/03/24 09:35:26;;;;;;;0.00;0.00;;;20.80;78.20;;;;;;5005109;28;20112;-77
2023/03/24 09:37:54;;;;;;;0.00;0.00;;;20.60;79.40;;;;;;5004823;28;20033;-77
2023/03/24 09:40:41;;;;;;;0.25;0.25;;;20.10;80.80;;;;;;5006427;28;20032;-76
2023/03/24 09:43:24;;;;;;;0.00;0.00;;;20.70;81.60;;;;;;5023783;28;20076;-76
2023/03/24 09:45:55;;;;;;;0.00;0.00;;;21.90;79.10;;;;;;5001388;28;20054;-76
2023/03/24 09:48:48;;;;;;;0.00;0.00;;;22.40;76.50;;;;;;5012611;28;20381;-76
2023/03/24 09:55:01;;;;;;;0.00;0.00;;;22.20;76.80;;;;;;5011927;28;20043;-76
2023/03/24 09:57:43;;;;;;;0.25;0.13;;;22.50;75.80;;;;;;4999817;28;20022;-75
2023/03/24 10:00:29;;;;;;;0.00;0.00;;;22.70;75.20;;;;;;5015965;28;20017;-78
2023/03/24 10:03:14;;;;;;;0.05;0.05;;;22.40;75.20;;;;;;5007653;28;20018;-78
2023/03/24 10:05:45;;;;;;;0.32;0.10;;;22.00;75.20;;;;;;5003691;28;20543;-71
2023/03/24 10:08:34;;;;;;;0.00;0.00;;;22.20;75.40;;;;;;4998383;28;20028;-71
2023/03/24 10:11:07;;;;;;;0.25;0.25;;;22.70;74.80;;;;;;5010476;28;20051;-73
2023/03/24 10:13:33;;;;;;;0.30;0.30;;;22.80;74.00;;;;;;5006821;28;20100;-74
2023/03/24 10:16:25;;;;;;;0.00;0.00;;;23.10;73.60;;;;;;5004228;28;20077;-72
2023/03/24 10:19:15;;;;;;;0.28;0.28;;;23.30;72.70;;;;;;5000353;28;20633;-73
2023/03/24 10:21:53;;;;;;;0.80;0.40;;;23.50;72.00;;;;;;4998887;28;20123;-74
2023/03/24 10:24:40;;;;;;;0.15;0.15;;;23.30;72.40;;;;;;5003791;28;20026;-73
2023/03/24 10:27:18;;;;;;;0.30;0.30;;;23.10;72.50;;;;;;5004871;28;20024;-77
2023/03/24 10:29:45;;;;;;;0.17;0.17;;;22.70;73.60;;;;;;5000670;28;20021;-75
2023/03/24 10:32:28;;;;;;;0.10;0.10;;;22.80;73.30;;;;;;4998241;28;20025;-74
2023/03/24 10:34:59;;;;;;;0.43;0.35;;;22.50;73.20;;;;;;5002110;28;20044;-76
2023/03/24 10:37:30;;;;;;;0.00;0.00;;;22.10;74.70;;;;;;5020614;28;20021;-76
2023/03/24 10:39:57;;;;;;;0.10;0.10;;;22.10;74.80;;;;;;5003040;28;20501;-78
2023/03/24 10:42:31;;;;;;;0.00;0.00;;;22.30;74.90;;;;;;5002846;28;20019;-78
2023/03/24 10:44:58;;;;;;;0.00;0.00;;;22.30;73.80;;;;;;5010561;28;20037;-74
2023/03/24 10:47:27;;;;;;;0.20;0.08;;;22.70;73.10;;;;;;5011313;28;20028;-73
2023/03/24 10:50:01;;;;;;;0.00;0.00;;;22.70;72.50;;;;;;4996461;28;20550;-74
2023/03/24 10:52:42;;;;;;;0.03;0.03;;;22.90;72.60;;;;;;5005072;28;21155;-75
2023/03/24 10:55:15;;;;;;;0.08;0.08;;;22.70;72.50;;;;;;5002919;28;20022;-76
2023/03/24 10:57:49;;;;;;;0.00;0.00;;;23.00;71.90;;;;;;5018092;28;20034;-74
2023/03/24 11:00:23;;;;;;;0.93;0.85;;;23.00;71.30;;;;;;4997362;28;20034;-72
2023/03/24 11:03:00;;;;;;;0.10;0.00;;;22.60;71.90;;;;;;5016804;28;20525;-71
2023/03/24 11:05:32;;;;;;;0.10;0.05;;;22.30;72.30;;;;;;5004772;28;20041;-71
2023/03/24 11:08:11;;;;;;;0.00;0.00;;;22.00;72.90;;;;;;5000922;28;20131;-73
2023/03/24 11:10:37;;;;;;;0.13;0.13;;;21.90;73.80;;;;;;5004841;28;20018;-77
2023/03/24 11:13:04;;;;;;;;;;;21.80;73.60;;;;;;5006951;28;20029;-76
2023/03/24 11:15:35;;;;;;;0.00;0.00;;;21.80;73.00;;;;;;5000792;28;20395;-76
2023/03/24 11:18:10;;;;;;;0.90;0.17;;;22.20;72.00;;;;;;5002578;28;20022;-76
2023/03/24 11:20:49;;;;;;;0.10;0.10;;;22.20;72.20;;;;;;4997359;28;20513;-75
2023/03/24 11:23:28;;;;;;;0.00;0.00;;;22.10;71.70;;;;;;5002164;28;20116;-74
2023/03/24 11:26:18;;;;;;;0.55;0.30;;;22.20;72.50;;;;;;5017442;28;20363;-73
2023/03/24 11:28:51;;;;;;;0.30;0.17;;;22.50;72.00;;;;;;5008930;28;20018;-74
2023/03/24 11:31:29;;;;;;;0.00;0.00;;;22.70;70.90;;;;;;5005825;28;20217;-78
2023/03/24 11:34:15;;;;;;;0.00;0.00;;;23.00;70.60;;;;;;5007634;28;20029;-76
2023/03/24 11:36:59;;;;;;;0.00;0.00;;;22.80;71.50;;;;;;5016116;28;20018;-75
2023/03/24 11:39:34;;;;;;;0.25;0.15;;;22.70;71.20;;;;;;5002745;28;20314;-77
2023/03/24 11:42:17;;;;;;;0.10;0.10;;;22.70;70.80;;;;;;5005306;28;20032;-77
2023/03/24 11:44:50;;;;;;;0.38;0.32;;;22.30;70.70;;;;;;5001765;28;20022;-78
2023/03/24 11:47:36;;;;;;;0.20;0.20;;;22.10;71.40;;;;;;5000674;28;20027;-76
2023/03/24 11:50:11;;;;;;;0.55;0.08;;;22.00;71.80;;;;;;5017696;28;20026;-78
2023/03/24 11:53:00;;;;;;;0.10;0.10;;;21.90;72.60;;;;;;4998418;28;20046;-74
2023/03/24 11:55:35;;;;;;;0.00;0.00;;;22.20;71.90;;;;;;5015453;28;20026;-76
2023/03/24 11:58:30;;;;;;;0.00;0.00;;;22.40;71.50;;;;;;5010914;28;20028;-77
2023/03/24 12:01:09;;;;;;;0.95;0.25;;;22.70;71.70;;;;;;5009889;28;20021;-75
2023/03/24 12:03:59;;;;;;;0.00;0.00;;;23.00;70.30;;;;;;5010674;28;20064;-73
2023/03/24 12:06:47;;;;;;;0.95;0.65;;;23.20;69.60;;;;;;5001286;28;20064;-74
2023/03/24 12:09:31;;;;;;;0.10;0.10;;;23.50;68.80;;;;;;5008314;28;20021;-76
2023/03/24 12:12:02;;;;;;;0.00;0.00;;;23.50;69.00;;;;;;5005063;28;20022;-78
2023/03/24 12:14:38;;;;;;;0.52;0.30;;;23.30;69.40;;;;;;5006760;28;20065;-78
2023/03/24 12:17:04;;;;;;;0.30;0.30;;;23.30;68.50;;;;;;5009406;28;20492;-75
2023/03/24 12:19:34;;;;;;;0.20;0.20;;;23.10;68.90;;;;;;5011416;28;20726;-75
2023/03/24 12:21:59;;;;;;;0.45;0.17;;;22.80;69.40;;;;;;5009345;28;20443;-77
2023/03/24 12:24:49;;;;;;;0.10;0.10;;;22.70;69.90;;;;;;5003804;28;20056;-78
2023/03/24 12:27:58;;;;;;;0.00;0.00;;;22.60;70.20;;;;;;5011202;28;20812;-76
2023/03/24 12:30:41;;;;;;;0.13;0.10;;;22.50;70.30;;;;;;5022610;28;20050;-78
2023/03/24 12:33:23;;;;;;;0.00;0.00;;;22.60;69.50;;;;;;5006257;28;20036;-73
2023/03/24 12:36:21;;;;;;;0.17;0.17;;;23.20;69.70;;;;;;5008659;28;20044;-76
2023/03/24 12:39:11;;;;;;;0.20;0.08;;;23.80;68.60;;;;;;4999865;28;20033;-80
2023/03/24 12:42:06;;;;;;;0.90;0.32;;;24.10;67.00;;;;;;5014740;28;20045;-84
2023/03/24 12:45:15;;;;;;;0.00;0.00;;;24.10;67.30;;;;;;5008453;28;20113;-86
2023/03/24 12:47:46;;;;;;;;;;;24.60;67.00;;;;;;5009902;28;20022;-87
2023/03/24 12:50:18;;;;;;;0.38;0.22;;;24.30;66.70;;;;;;5015121;28;19909;-84
2023/03/24 12:53:06;;;;;;;0.20;0.15;;;23.80;67.20;;;;;;5011109;28;20022;-73
2023/03/24 12:56:02;;;;;;;0.00;0.00;;;23.60;67.10;;;;;;5008132;28;20026;-74
2023/03/24 12:58:50;;;;;;;0.00;0.00;;;23.60;67.40;;;;;;5001546;28;20457;-73
2023/03/24 13:01:51;;;;;;;0.00;0.00;;;23.80;67.40;;;;;;5014243;28;20109;-73
2023/03/24 13:04:34;;;;;;;0.00;0.00;;;23.70;67.60;;;;;;5009391;28;20029;-73
2023/03/24 13:07:10;;;;;;;0.00;0.00;;;23.90;67.30;;;;;;5002783;28;20052;-73
2023/03/24 13:09:45;;;;;;;;;;;23.70;67.40;;;;;;5013803;28;20029;-74
2023/03/24 13:12:49;;;;;;;0.10;0.10;;;23.70;67.90;;;;;;5013407;28;19966;-74
2023/03/24 13:15:42;;;;;;;0.03;0.03;;;23.60;68.60;;;;;;5002896;28;20032;-74
2023/03/24 13:18:30;;;;;;;0.20;0.20;;;23.00;68.60;;;;;;5021307;28;20141;-73
2023/03/24 13:21:16;;;;;;;0.17;0.17;;;23.00;68.90;;;;;;5010830;28;20847;-74
2023/03/24 13:24:06;;;;;;;0.00;0.00;;;23.00;69.40;;;;;;5003445;28;20087;-74
2023/03/24 13:26:44;;;;;;;0.00;0.00;;;23.10;69.00;;;;;;5004105;28;20026;-74
2023/03/24 13:29:45;;;;;;;0.10;0.10;;;22.90;69.00;;;;;;5009570;28;20025;-74
2023/03/24 13:32:21;;;;;;;0.20;0.20;;;22.90;68.90;;;;;;5002131;28;20036;-75
2023/03/24 13:34:55;;;;;;;0.20;0.20;;;22.80;70.00;;;;;;5005777;28;20053;-74
2023/03/24 13:37:31;;;;;;;0.17;0.10;;;23.10;68.90;;;;;;5009096;28;20029;-73
2023/03/24 13:39:59;;;;;;;0.03;0.03;;;23.20;69.30;;;;;;5005720;28;20151;-72